Flight Track Log - Related Links

Times and Time Zones

All times are in EDT time to prevent confusion due to time zone crossing. See the ASQ5848 flight status page for this flight to view local times or setup timezone preferences in your user account.

Time Position Orientation Groundspeed Altitude Reporting Facility
EDT Latitude Longitude Course Direction KTS MPH feet Rate Location/Type
Sun 12:33:03 PM 43.1092 -76.0808 87° East 169 194 1,100  Level Boston Center
Sun 12:33:39 PM 43.1106 -76.0383 87° East 179 206 2,200 2,165 Climbing Boston Center
Sun 12:34:40 PM 43.1500 -75.9808 47° Northeast 217 250 4,600 1,869 Climbing Boston Center
Sun 12:35:41 PM 43.2033 -76.0039 343° North 273 314 6,000 1,776 Climbing Boston Center
Sun 12:37:12 PM 43.2031 -76.1567 270° West 284 327 9,100 1,947 Climbing Cleveland Center
Sun 12:38:12 PM 43.2031 -76.2650 270° West 290 334 10,900 1,450 Climbing Cleveland Center
Sun 12:39:12 PM 43.2033 -76.3903 270° West 311 358 12,000 1,100 Climbing Cleveland Center
Sun 12:40:12 PM 43.2144 -76.5236 277° West 332 382 13,100 1,200 Climbing Cleveland Center
Sun 12:41:12 PM 43.2378 -76.6589 283° West 355 409 14,400 1,150 Climbing Cleveland Center
Sun 12:42:12 PM 43.2383 -76.8042 270° West 371 427 15,400 1,000 Climbing Cleveland Center
Sun 12:43:12 PM 43.2350 -76.9525 268° West 383 441 16,400 1,150 Climbing Cleveland Center
Sun 12:44:12 PM 43.2272 -77.1128 266° West 388 447 17,700 1,150 Climbing Cleveland Center
Sun 12:45:12 PM 43.2233 -77.2639 268° West 393 452 18,700 1,050 Climbing Cleveland Center
Sun 12:46:12 PM 43.2192 -77.4153 268° West 398 458 19,800 1,100 Climbing Cleveland Center
Sun 12:47:12 PM 43.2150 -77.5692 268° West 403 464 20,900 1,050 Climbing Cleveland Center
Sun 12:48:12 PM 43.2086 -77.7264 267° West 408 470 21,900 1,000 Climbing Cleveland Center
Sun 12:49:12 PM 43.2019 -77.8833 267° West 408 470 22,900 1,000 Climbing Cleveland Center
Sun 12:50:12 PM 43.1992 -78.0400 269° West 408 470 23,900 1,150 Climbing Cleveland Center
Sun 12:51:12 PM 43.1919 -78.1911 266° West 408 470 25,200 1,350 Climbing Cleveland Center
Sun 12:52:12 PM 43.1783 -78.3428 263° West 408 470 26,600 1,400 Climbing Cleveland Center
Sun 12:53:12 PM 43.1497 -78.4861 255° West 397 457 28,000 1,350 Climbing Cleveland Center
Sun 12:54:12 PM 43.1061 -78.6125 245° Southwest 382 440 29,300 1,200 Climbing Cleveland Center
Sun 12:55:12 PM 43.0625 -78.7419 245° Southwest 377 434 30,400 1,050 Climbing Cleveland Center
Sun 12:56:12 PM 43.0225 -78.8594 245° Southwest 377 434 31,400 1,085 Climbing Cleveland Center
Sun 12:56:46 PM 42.9833 -78.9333 234° Southwest 380 437 32,100 1,021 Climbing Toronto Center
Sun 12:57:46 PM 42.9833 -79.0667 270° West 380 437 33,000 1,000 Climbing Toronto Center
Sun 12:58:46 PM 42.9833 -79.2167 270° West 380 437 34,100 1,000 Climbing Toronto Center
Sun 12:59:46 PM 42.9833 -79.3667 270° West 380 437 35,000 950 Climbing Toronto Center
Sun 01:00:46 PM 42.9833 -79.5000 270° West 380 437 36,000 500 Climbing Toronto Center
Sun 01:01:46 PM 42.9833 -79.6500 270° West 380 437 36,000  Level Toronto Center
Sun 01:02:46 PM 43.0000 -79.8000 279° West 400 460 36,000  Level Toronto Center
Sun 01:03:46 PM 43.0000 -79.9500 270° West 420 483 36,000  Level Toronto Center
Sun 01:04:46 PM 43.0000 -80.1167 270° West 430 495 36,000  Level Toronto Center
Sun 01:05:46 PM 43.0000 -80.3000 270° West 430 495 36,000  Level Toronto Center
Sun 01:06:46 PM 43.0000 -80.4333 270° West 420 483 36,000  Level Toronto Center
Sun 01:07:46 PM 43.0000 -80.5833 270° West 410 472 36,000  Level Toronto Center
Sun 01:08:46 PM 43.0000 -80.7500 270° West 410 472 36,000  Level Toronto Center
Sun 01:09:46 PM 42.9833 -80.9167 262° West 410 472 36,000  Level Toronto Center
Sun 01:10:46 PM 42.9833 -81.0667 270° West 410 472 36,000  Level Toronto Center
Sun 01:11:46 PM 42.9833 -81.2333 270° West 410 472 36,000  Level Toronto Center
Sun 01:12:46 PM 42.9833 -81.3667 270° West 410 472 36,000  Level Toronto Center
Sun 01:13:46 PM 42.9833 -81.5500 270° West 420 483 36,000  Level Toronto Center
Sun 01:14:46 PM 43.0000 -81.7000 279° West 420 483 36,000  Level Toronto Center
Sun 01:15:46 PM 43.0000 -81.8500 270° West 420 483 36,000  Level Toronto Center
Sun 01:16:46 PM 42.9833 -82.0333 263° West 430 495 36,000  Level Toronto Center
Sun 01:17:46 PM 42.9833 -82.1833 270° West 430 495 36,000  Level Toronto Center
Sun 01:18:46 PM 42.9833 -82.3500 270° West 420 483 36,000  Level Toronto Center
Sun 01:19:46 PM 42.9833 -82.5000 270° West 420 483 36,000  Level Toronto Center
Sun 01:20:36 PM 42.9878 -82.6436 272° West 423 487 36,000  Level Cleveland Center
Sun 01:21:37 PM 42.9850 -82.7997 269° West 423 487 36,000  Level Cleveland Center
Sun 01:22:36 PM 42.9839 -82.9558 269° West 423 487 36,000  Level Cleveland Center
Sun 01:23:36 PM 42.9806 -83.1175 268° West 423 487 36,000  Level Cleveland Center
Sun 01:24:36 PM 42.9769 -83.2761 268° West 423 487 36,000  Level Cleveland Center
Sun 01:25:36 PM 42.9753 -83.4350 269° West 423 487 36,000  Level Cleveland Center
Sun 01:26:36 PM 42.9689 -83.6022 267° West 423 487 36,000  Level Cleveland Center
Sun 01:27:36 PM 42.9625 -83.7636 267° West 428 493 36,000  Level Cleveland Center
Sun 01:28:36 PM 42.9497 -83.9219 264° West 428 493 36,000  Level Cleveland Center
Sun 01:29:36 PM 42.9322 -84.0856 262° West 428 493 36,000 -300 Level Cleveland Center
Sun 01:30:36 PM 42.9169 -84.2464 263° West 428 493 35,400 -1,296 Descending Cleveland Center
Sun 01:31:41 PM 42.9022 -84.4075 263° West 433 498 33,300 -1,843 Descending Chicago Center
Sun 01:32:43 PM 42.8844 -84.5742 262° West 442 509 31,500 -1,790 Descending Chicago Center
Sun 01:33:45 PM 42.8689 -84.7386 263° West 439 505 29,600 -1,790 Descending Chicago Center
Sun 01:34:47 PM 42.8506 -84.9067 262° West 447 514 27,800 -1,694 Descending Chicago Center
Sun 01:35:49 PM 42.8283 -85.1144 262° West 461 531 26,100 -871 Descending Chicago Center
Sun 01:36:51 PM 42.8103 -85.2861 262° West 458 527 26,000 -48 Descending Chicago Center
Sun 01:37:53 PM 42.7911 -85.4581 261° West 459 528 26,000  Level Chicago Center
Sun 01:38:55 PM 42.7636 -85.6275 258° West 457 526 26,000  Level Chicago Center
Sun 01:39:58 PM 42.7322 -85.7972 256° West 458 527 26,000  Level Chicago Center
Sun 01:41:00 PM 42.7017 -85.9669 256° West 458 527 26,000 -919 Level Chicago Center
Sun 01:42:02 PM 42.6708 -86.1378 256° West 461 531 24,100 -1,984 Descending Chicago Center
Sun 01:43:04 PM 42.6333 -86.3361 256° West 452 520 21,900 -1,839 Descending Chicago Center
Sun 01:44:06 PM 42.6022 -86.4997 256° West 447 514 20,300 -1,790 Descending Chicago Center
Sun 01:45:08 PM 42.5719 -86.6608 256° West 441 507 18,200 -1,984 Descending Chicago Center
Sun 01:46:10 PM 42.5381 -86.8117 253° West 422 486 16,200 -1,935 Descending Chicago Center
Sun 01:47:12 PM 42.4983 -86.9553 249° West 410 472 14,200 -1,984 Descending Chicago Center
Sun 01:48:14 PM 42.4600 -87.0925 249° West 393 452 12,100 -1,839 Descending Chicago Center
Sun 01:49:16 PM 42.4236 -87.2269 250° West 382 440 10,400 -1,016 Descending Chicago Center
Sun 01:50:18 PM 42.3789 -87.3850 249° West 376 433 10,000 -194 Descending Chicago Center
Sun 01:51:20 PM 42.3475 -87.5008 250° West 365 420 10,000  Level Chicago Center
Sun 01:52:22 PM 42.2631 -87.6156 225° Southwest 366 421 10,000 -97 Level Chicago Center
Sun 01:53:24 PM 42.1919 -87.6889 217° Southwest 327 376 9,800 -576 Descending Chicago Center
Sun 01:54:27 PM 42.1286 -87.7569 219° Southwest 295 339 8,800 -960 Descending Chicago Center
Sun 01:55:29 PM 42.0914 -87.8483 241° Southwest 300 345 7,800 -871 Descending Chicago Center
Sun 01:56:31 PM 42.0911 -87.9556 270° West 289 333 7,000 -387 Descending Chicago Center
Sun 01:57:33 PM 42.0908 -88.0636 270° West 257 296 7,000 -571 Level Chicago Center
Sun 01:58:37 PM 42.0833 -88.1500 263° West 216 249 5,800 -1,065 Descending Chicago TRACON
Sun 01:59:37 PM 42.0617 -88.1975 238° Southwest 219 252 4,800 -885 Descending Chicago Center
Sun 02:00:39 PM 42.0092 -88.1939 177° South 196 226 4,000 -484 Descending Chicago Center
Sun 02:01:41 PM 41.9842 -88.1328 119° Southeast 194 223 3,800 -661 Descending Chicago Center
Sun 02:02:37 PM 41.9833 -88.0500 91° East 183 211 2,700 -983 Descending Chicago TRACON
Sun 02:03:37 PM 41.9833 -88.0000 90° East 142 163 1,900 -750 Descending Chicago TRACON
Sun 02:04:37 PM 41.9833 -87.9500 90° East 132 152 1,200 -700 Descending Chicago TRACON
Sun 02:06:00 PM 41.9817 -87.9067 90° East  Level Estimated

Login

Don't have an account? Register now (free) for customized features, flight alerts, and more!